Terminal Aerodrome Forecast
Issued by NWS Atlanta, GA

Home | Current Version | Previous Version | Text Only | Print | Product List | Glossary On
Versions: 1 2 3 4 5 6 7 8 9 10 11 12 13 14 15 16 17 18 19 20
000
FTUS42 KFFC 251934 AAB
TAFMCN
TAF AMD
KMCN 251934Z 2520/2618 23010G18KT P6SM FEW250
     FM252200 22009KT P6SM SCT250
     FM260300 23006KT P6SM OVC050
     FM260900 26005KT P6SM OVC020
     FM261500 29012G20KT P6SM BKN025=

USA.gov is the U.S. government's official web portal to all federal, state and local government web resources and services.